Time;durP1;ratioP1;P1;durP2;ratioP2;P2;SDS_P1;SDS_P2;PMS_P1;PMS_P2;Temp;Humidity;BMP_temperature;BMP_pressure;BME280_temperature;BME280_humidity;BME280_pressure;Samples;Min_cycle;Max_cycle;Signal;HPM_P1;HPM_P2
2023/05/03 00:01:50;;;;;;;0.30;0.30;;;;;;;9.57;53.91;103072.56;5084231;28;20409;-81
2023/05/03 00:04:17;;;;;;;0.10;0.10;;;;;;;9.54;55.18;103078.72;5079323;28;20040;-78
2023/05/03 00:06:43;;;;;;;0.10;0.10;;;;;;;9.51;54.73;103065.44;5074988;28;20016;-80
2023/05/03 00:09:10;;;;;;;0.20;0.20;;;;;;;9.48;54.03;103066.25;5077662;28;20454;-81
2023/05/03 00:11:36;;;;;;;0.10;0.10;;;;;;;9.47;54.41;103064.47;5076505;28;21302;-81
2023/05/03 00:14:02;;;;;;;0.10;0.10;;;;;;;9.45;55.00;103075.88;5073459;28;20032;-81
2023/05/03 00:16:29;;;;;;;0.10;0.10;;;;;;;9.41;54.35;103066.06;5074301;28;20038;-81
2023/05/03 00:18:55;;;;;;;0.10;0.10;;;;;;;9.38;54.02;103065.19;5074495;28;20712;-82
2023/05/03 00:21:21;;;;;;;0.10;0.10;;;;;;;9.35;54.43;103067.75;5072748;28;20033;-83
2023/05/03 00:23:47;;;;;;;0.10;0.10;;;;;;;9.32;54.28;103056.19;5074904;28;20081;-80
2023/05/03 00:26:13;;;;;;;0.10;0.10;;;;;;;9.32;54.29;103064.13;5080759;28;20405;-78
2023/05/03 00:28:40;;;;;;;0.10;0.10;;;;;;;9.30;54.48;103065.88;5076218;28;20024;-79
2023/05/03 00:31:08;;;;;;;0.32;0.32;;;;;;;9.29;54.58;103069.38;5074456;28;20025;-81
2023/05/03 00:33:36;;;;;;;0.20;0.20;;;;;;;9.26;54.89;103053.44;5085568;28;20024;-81
2023/05/03 00:36:10;;;;;;;0.10;0.10;;;;;;;9.29;54.73;103064.09;5069536;28;20020;-81
2023/05/03 00:38:37;;;;;;;0.10;0.10;;;;;;;9.21;54.80;103059.53;5069831;28;20032;-80
2023/05/03 00:41:04;;;;;;;0.08;0.08;;;;;;;9.20;54.97;103062.13;5076733;28;20031;-79
2023/05/03 00:43:31;;;;;;;0.10;0.10;;;;;;;9.19;55.27;103060.34;5081722;28;20040;-80
2023/05/03 00:45:58;;;;;;;0.10;0.10;;;;;;;9.17;54.94;103060.31;5076309;28;20055;-80
2023/05/03 00:48:25;;;;;;;0.10;0.10;;;;;;;9.16;55.06;103057.63;5082812;28;20024;-78
2023/05/03 00:50:53;;;;;;;0.10;0.10;;;;;;;9.14;54.83;103060.25;5076731;28;20025;-81
2023/05/03 00:53:21;;;;;;;0.10;0.10;;;;;;;9.13;55.13;103063.75;5074631;28;20028;-80
2023/05/03 00:55:50;;;;;;;0.10;0.10;;;;;;;9.12;54.61;103067.28;5073570;28;20028;-81
2023/05/03 00:58:16;;;;;;;0.10;0.10;;;;;;;9.10;54.56;103062.78;5074009;28;20021;-79
2023/05/03 01:00:43;;;;;;;0.10;0.10;;;;;;;9.09;55.41;103076.88;5078011;28;20033;-81
2023/05/03 01:03:09;;;;;;;0.10;0.10;;;;;;;9.07;55.73;103082.13;5074992;28;20036;-80
2023/05/03 01:06:02;;;;;;;0.10;0.10;;;;;;;9.11;54.62;103075.16;5075327;28;20039;-81
2023/05/03 01:08:36;;;;;;;0.10;0.10;;;;;;;9.05;55.05;103081.22;5073164;28;20028;-80
2023/05/03 01:14:07;;;;;;;0.10;0.10;;;;;;;9.02;55.25;103070.53;5109203;27;20410;-81
2023/05/03 01:16:43;;;;;;;0.10;0.10;;;;;;;8.98;55.46;103061.66;5090262;28;20059;-81
2023/05/03 01:19:39;;;;;;;0.10;0.10;;;;;;;9.05;55.60;103065.34;5083693;28;20029;-80
2023/05/03 01:22:37;;;;;;;0.10;0.10;;;;;;;9.05;55.16;103071.50;5078511;28;20112;-81
2023/05/03 01:25:12;;;;;;;0.10;0.10;;;;;;;9.00;55.76;103067.88;5098845;28;20031;-82
2023/05/03 01:27:40;;;;;;;0.10;0.10;;;;;;;8.94;55.39;103066.84;5088161;28;20055;-81
2023/05/03 01:30:08;;;;;;;0.10;0.10;;;;;;;8.92;56.03;103066.78;5098545;28;20024;-80
2023/05/03 01:35:41;;;;;;;0.10;0.10;;;;;;;8.96;55.97;103073.97;5113789;27;20406;-84
2023/05/03 01:38:08;;;;;;;0.10;0.10;;;;;;;8.88;55.18;103083.47;5118826;28;20044;-85
2023/05/03 01:40:44;;;;;;;0.10;0.10;;;;;;;8.87;55.58;103073.72;5107151;28;20027;-82
2023/05/03 01:43:12;;;;;;;0.10;0.10;;;;;;;8.82;55.82;103065.72;5108324;28;20030;-85
2023/05/03 01:45:39;;;;;;;0.10;0.10;;;;;;;8.80;56.39;103063.88;5109263;27;20101;-84
2023/05/03 01:48:14;;;;;;;0.20;0.20;;;;;;;8.80;56.59;103063.88;5098253;28;20552;-82
2023/05/03 01:50:40;;;;;;;0.10;0.10;;;;;;;8.73;56.31;103053.19;5103431;28;20028;-82
2023/05/03 01:53:06;;;;;;;0.15;0.15;;;;;;;8.70;55.86;103055.75;5100972;28;20063;-86
2023/05/03 01:55:33;;;;;;;0.10;0.10;;;;;;;8.68;55.93;103057.44;5111920;27;20056;-86
2023/05/03 01:57:59;;;;;;;0.10;0.10;;;;;;;8.68;55.83;103048.63;5099338;28;20028;-84
2023/05/03 02:00:25;;;;;;;0.10;0.10;;;;;;;8.65;56.45;103044.19;5093993;28;20037;-83
2023/05/03 02:02:51;;;;;;;0.10;0.10;;;;;;;8.65;55.80;103037.97;5106825;28;20043;-82
2023/05/03 02:05:18;;;;;;;0.10;0.10;;;;;;;8.61;56.40;103034.41;5106983;27;20031;-84
2023/05/03 02:07:44;;;;;;;0.10;0.10;;;;;;;8.58;56.62;103027.28;5103361;28;20389;-82
2023/05/03 02:10:13;;;;;;;0.10;0.10;;;;;;;8.56;56.58;103022.81;5100764;28;20041;-82
2023/05/03 02:12:40;;;;;;;0.10;0.10;;;;;;;8.54;56.59;103013.97;5106072;28;20016;-85
2023/05/03 02:15:07;;;;;;;0.20;0.20;;;;;;;8.50;56.83;103006.81;5096280;28;20399;-83
2023/05/03 02:17:33;;;;;;;0.10;0.10;;;;;;;8.47;56.94;102998.81;5102625;28;20028;-85
2023/05/03 02:20:00;;;;;;;0.10;0.10;;;;;;;8.45;56.65;103004.03;5098025;28;20388;-82
2023/05/03 02:22:26;;;;;;;0.10;0.10;;;;;;;8.42;56.84;102999.59;5093552;28;20121;-83
2023/05/03 02:24:52;;;;;;;0.10;0.10;;;;;;;8.40;56.56;103001.28;5097841;28;20028;-82
2023/05/03 02:27:18;;;;;;;0.20;0.20;;;;;;;8.37;56.65;103005.59;5107394;28;20031;-82
2023/05/03 02:29:44;;;;;;;0.10;0.10;;;;;;;8.33;56.48;103009.91;5108760;28;20035;-83
2023/05/03 02:32:10;;;;;;;0.10;0.10;;;;;;;8.30;56.68;103030.97;5102780;28;20070;-82
2023/05/03 02:34:37;;;;;;;0.10;0.10;;;;;;;8.27;56.72;103030.88;5092067;28;20087;-83
2023/05/03 02:37:03;;;;;;;0.10;0.10;;;;;;;8.24;57.37;103044.03;5106645;28;20028;-85
2023/05/03 02:39:29;;;;;;;0.10;0.10;;;;;;;8.22;56.95;103038.72;5100533;28;20027;-85
2023/05/03 02:41:55;;;;;;;0.10;0.10;;;;;;;8.22;57.42;103040.44;5092467;28;20024;-84
2023/05/03 02:44:21;;;;;;;0.10;0.10;;;;;;;8.20;57.42;103040.41;5100933;28;20055;-85
2023/05/03 02:46:47;;;;;;;0.20;0.20;;;;;;;8.19;57.27;103043.91;5088086;28;20368;-87
2023/05/03 02:49:13;;;;;;;0.10;0.10;;;;;;;8.19;57.89;103051.84;5083060;28;20028;-85
2023/05/03 02:51:40;;;;;;;0.10;0.10;;;;;;;8.17;58.19;103052.66;5086915;28;20048;-84
2023/05/03 02:54:06;;;;;;;0.10;0.10;;;;;;;8.17;57.26;103050.88;5087092;28;20020;-82
2023/05/03 02:56:32;;;;;;;0.20;0.20;;;;;;;8.16;57.07;103053.50;5083586;28;20044;-83
2023/05/03 02:58:58;;;;;;;0.10;0.10;;;;;;;8.15;57.02;103051.72;5085049;28;20034;-82
2023/05/03 03:01:25;;;;;;;0.10;0.10;;;;;;;8.14;57.66;103050.81;5094342;28;20526;-82
2023/05/03 03:03:51;;;;;;;0.10;0.10;;;;;;;8.13;56.91;103048.16;5091177;28;20428;-82
2023/05/03 03:06:17;;;;;;;0.13;0.13;;;;;;;8.12;57.60;103049.00;5091340;28;20032;-83
2023/05/03 03:08:43;;;;;;;0.20;0.20;;;;;;;8.07;56.93;103047.16;5084345;28;20025;-82
2023/05/03 03:11:10;;;;;;;0.13;0.13;;;;;;;8.07;57.50;103044.50;5091377;28;20058;-82
2023/05/03 03:13:38;;;;;;;0.10;0.10;;;;;;;8.05;57.78;103040.00;5081346;28;20027;-84
2023/05/03 03:16:06;;;;;;;0.20;0.20;;;;;;;8.04;58.25;103040.88;5083667;28;20036;-83
2023/05/03 03:18:33;;;;;;;0.10;0.10;;;;;;;8.04;57.30;103049.69;5079917;28;20070;-83
2023/05/03 03:21:00;;;;;;;0.10;0.10;;;;;;;8.03;57.46;103053.19;5088020;28;20029;-83
2023/05/03 03:23:26;;;;;;;0.10;0.10;;;;;;;8.02;57.52;103047.88;5088028;28;20021;-82
2023/05/03 03:25:53;;;;;;;0.17;0.17;;;;;;;8.00;58.36;103047.84;5085186;28;20029;-82
2023/05/03 03:28:19;;;;;;;0.10;0.10;;;;;;;7.99;57.74;103053.06;5080054;28;20584;-83
2023/05/03 03:30:45;;;;;;;0.10;0.10;;;;;;;7.97;57.73;103052.13;5089401;28;20411;-81
2023/05/03 03:33:11;;;;;;;0.10;0.10;;;;;;;7.94;57.80;103050.31;5083217;28;20032;-82
2023/05/03 03:35:38;;;;;;;0.13;0.13;;;;;;;7.93;57.43;103056.44;5090884;28;20036;-81
2023/05/03 03:38:05;;;;;;;0.10;0.10;;;;;;;7.90;57.97;103051.97;5077318;28;20082;-82
2023/05/03 03:40:31;;;;;;;0.10;0.10;;;;;;;7.90;57.61;103048.41;5076179;28;20423;-82
2023/05/03 03:42:58;;;;;;;0.10;0.10;;;;;;;7.88;57.57;103053.66;5090224;28;20059;-83
2023/05/03 03:45:24;;;;;;;0.10;0.10;;;;;;;7.85;58.21;103050.97;5079531;28;20077;-81
2023/05/03 03:47:50;;;;;;;0.10;0.10;;;;;;;7.85;57.78;103052.69;5087349;28;20056;-84
2023/05/03 03:50:16;;;;;;;0.10;0.10;;;;;;;7.84;57.90;103054.44;5095609;28;20092;-84
2023/05/03 03:52:42;;;;;;;0.10;0.10;;;;;;;7.84;58.23;103059.72;5089458;28;20418;-83
2023/05/03 03:55:08;;;;;;;0.20;0.20;;;;;;;7.83;57.37;103054.41;5088069;28;20031;-83
2023/05/03 03:57:34;;;;;;;0.10;0.10;;;;;;;7.81;57.43;103056.09;5087424;28;20040;-85
2023/05/03 04:00:00;;;;;;;0.82;0.82;;;;;;;7.81;57.59;103061.38;5087352;28;20518;-85
2023/05/03 04:02:27;;;;;;;0.10;0.10;;;;;;;7.81;57.57;103064.03;5078432;28;20024;-84
2023/05/03 04:04:53;;;;;;;0.13;0.13;;;;;;;7.80;57.99;103068.44;5090491;28;20024;-85
2023/05/03 04:07:19;;;;;;;0.10;0.10;;;;;;;7.82;58.19;103073.72;5093042;28;20028;-85
2023/05/03 04:09:45;;;;;;;0.10;0.10;;;;;;;7.82;58.64;103079.00;5086333;28;20084;-84
2023/05/03 04:12:11;;;;;;;0.10;0.10;;;;;;;7.82;58.53;103082.53;5084660;28;20029;-85
2023/05/03 04:14:37;;;;;;;0.10;0.10;;;;;;;7.83;58.93;103084.31;5079563;28;20028;-84
2023/05/03 04:17:03;;;;;;;0.10;0.10;;;;;;;7.84;58.38;103083.47;5091850;28;20053;-83
2023/05/03 04:19:29;;;;;;;0.10;0.10;;;;;;;7.86;58.59;103088.78;5084398;28;20452;-83
2023/05/03 04:21:58;;;;;;;0.10;0.10;;;;;;;7.87;59.59;103095.88;5084841;28;20024;-82
2023/05/03 04:24:24;;;;;;;0.10;0.10;;;;;;;7.86;59.17;103089.72;5081453;28;20584;-84
2023/05/03 04:26:50;;;;;;;0.10;0.10;;;;;;;7.89;58.51;103094.19;5078440;28;20036;-84
2023/05/03 04:29:18;;;;;;;0.20;0.20;;;;;;;7.88;58.65;103100.28;5077839;28;20090;-87
2023/05/03 04:31:44;;;;;;;0.15;0.15;;;;;;;7.89;58.57;103096.81;5090201;28;20115;-84
2023/05/03 04:34:14;;;;;;;0.10;0.10;;;;;;;7.89;57.91;103099.44;5085780;28;20590;-84
2023/05/03 04:36:41;;;;;;;0.10;0.10;;;;;;;7.87;57.85;103099.38;5080368;28;20487;-85
2023/05/03 04:39:10;;;;;;;0.10;0.10;;;;;;;7.88;57.63;103092.38;5085033;28;20043;-84
2023/05/03 04:41:36;;;;;;;0.10;0.10;;;;;;;7.89;57.99;103094.19;5091185;28;20035;-83
2023/05/03 04:44:04;;;;;;;0.10;0.10;;;;;;;7.87;58.55;103086.19;5084426;28;20024;-82
2023/05/03 04:46:30;;;;;;;0.10;0.10;;;;;;;7.87;57.85;103087.94;5077308;28;20029;-83
2023/05/03 04:48:56;;;;;;;0.10;0.10;;;;;;;7.88;58.27;103084.47;5083987;28;20028;-83
2023/05/03 04:51:22;;;;;;;0.10;0.10;;;;;;;7.90;58.11;103086.28;5084602;28;20090;-85
2023/05/03 04:53:48;;;;;;;0.10;0.10;;;;;;;7.93;58.07;103085.47;5084542;28;20016;-82
2023/05/03 04:56:15;;;;;;;0.10;0.10;;;;;;;7.97;57.81;103086.44;5080547;28;20131;-87
2023/05/03 04:58:43;;;;;;;0.10;0.10;;;;;;;7.96;57.96;103090.81;5076222;28;20111;-84
2023/05/03 05:01:09;;;;;;;0.55;0.55;;;;;;;7.99;58.10;103082.09;5075383;28;20037;-83
2023/05/03 05:03:35;;;;;;;0.10;0.10;;;;;;;8.00;57.42;103090.06;5086169;28;20243;-83
2023/05/03 05:06:01;;;;;;;0.10;0.10;;;;;;;8.02;57.68;103087.47;5082954;28;20107;-82
2023/05/03 05:08:27;;;;;;;0.45;0.45;;;;;;;8.04;58.36;103091.94;5081260;28;20039;-83
2023/05/03 05:10:53;;;;;;;0.13;0.13;;;;;;;8.06;58.25;103092.88;5086821;28;20021;-83
2023/05/03 05:13:19;;;;;;;0.10;0.10;;;;;;;8.08;58.33;103099.06;5077065;28;20487;-84
2023/05/03 05:15:45;;;;;;;0.10;0.10;;;;;;;8.09;57.69;103094.72;5090133;28;20492;-84
2023/05/03 05:18:11;;;;;;;0.10;0.10;;;;;;;8.12;57.76;103099.16;5086619;28;20039;-84
2023/05/03 05:20:38;;;;;;;0.10;0.10;;;;;;;8.15;58.41;103104.53;5080204;28;20025;-84
2023/05/03 05:23:04;;;;;;;0.20;0.20;;;;;;;8.18;57.77;103100.22;5085813;28;20051;-84
2023/05/03 05:25:30;;;;;;;0.10;0.10;;;;;;;8.21;57.72;103100.31;5073374;28;20033;-85
2023/05/03 05:27:56;;;;;;;0.10;0.10;;;;;;;8.25;58.35;103103.94;5085599;28;20030;-85
2023/05/03 05:30:22;;;;;;;0.10;0.10;;;;;;;8.29;58.14;103103.16;5079624;28;20024;-83
2023/05/03 05:32:48;;;;;;;0.10;0.10;;;;;;;8.34;57.95;103101.50;5080877;28;20033;-83
2023/05/03 05:35:16;;;;;;;0.10;0.10;;;;;;;8.38;58.47;103102.50;5084389;28;20036;-83
2023/05/03 05:37:42;;;;;;;0.10;0.10;;;;;;;8.40;57.81;103100.78;5083616;28;20036;-83
2023/05/03 05:40:09;;;;;;;0.20;0.20;;;;;;;8.43;58.51;103112.31;5080722;28;20032;-83
2023/05/03 05:42:35;;;;;;;0.10;0.10;;;;;;;8.49;58.89;103111.59;5083703;28;20038;-82
2023/05/03 05:45:01;;;;;;;0.10;0.10;;;;;;;8.54;58.38;103109.09;5091879;28;20031;-82
2023/05/03 05:47:27;;;;;;;0.10;0.10;;;;;;;8.58;58.45;103116.22;5075282;28;20041;-82
2023/05/03 05:49:53;;;;;;;0.10;0.10;;;;;;;8.65;58.42;103115.53;5079417;28;20033;-82
2023/05/03 05:52:19;;;;;;;0.10;0.10;;;;;;;8.69;58.22;103119.16;5076689;28;20499;-82
2023/05/03 05:54:45;;;;;;;0.10;0.10;;;;;;;8.74;58.65;103122.78;5079474;28;20036;-82
2023/05/03 05:57:12;;;;;;;0.10;0.10;;;;;;;8.80;58.34;103122.03;5084355;28;20051;-82
2023/05/03 05:59:38;;;;;;;0.10;0.10;;;;;;;8.85;58.52;103125.69;5094177;28;20100;-83
2023/05/03 06:02:10;;;;;;;0.10;0.10;;;;;;;8.90;58.47;103116.13;5103382;28;20059;-83
2023/05/03 06:04:36;;;;;;;0.10;0.10;;;;;;;8.95;58.57;103116.22;5083523;28;20040;-83
2023/05/03 06:07:02;;;;;;;0.10;0.10;;;;;;;8.96;58.46;103113.63;5082728;28;20358;-82
2023/05/03 06:09:28;;;;;;;0.10;0.10;;;;;;;9.02;58.35;103113.75;5086214;28;20036;-82
2023/05/03 06:11:54;;;;;;;1.85;1.75;;;;;;;9.05;58.99;103103.25;5086052;28;20443;-83
2023/05/03 06:14:20;;;;;;;0.10;0.10;;;;;;;9.11;58.60;103104.25;5078841;28;20499;-82
2023/05/03 06:16:46;;;;;;;0.10;0.10;;;;;;;9.16;58.33;103097.28;5079364;28;20059;-82
2023/05/03 06:19:12;;;;;;;0.10;0.10;;;;;;;9.21;58.54;103101.84;5082144;28;20075;-81
2023/05/03 06:21:38;;;;;;;0.20;0.20;;;;;;;9.27;58.71;103097.53;5085158;28;20028;-81
2023/05/03 06:24:05;;;;;;;0.10;0.10;;;;;;;9.32;58.38;103107.38;5081798;28;20031;-81
2023/05/03 06:26:31;;;;;;;0.10;0.10;;;;;;;9.38;58.00;103098.66;5089315;28;20020;-83
2023/05/03 06:28:59;;;;;;;0.05;0.05;;;;;;;9.44;58.59;103101.44;5087333;28;20034;-82
2023/05/03 06:31:25;;;;;;;0.10;0.10;;;;;;;9.51;58.35;103102.47;5088142;28;20025;-83
2023/05/03 06:33:51;;;;;;;0.10;0.10;;;;;;;9.58;58.36;103104.38;5096903;28;20021;-85
2023/05/03 06:36:17;;;;;;;0.10;0.10;;;;;;;9.63;58.16;103105.38;5100469;28;20126;-84
2023/05/03 06:38:44;;;;;;;0.10;0.10;;;;;;;9.70;58.08;103099.31;5087725;28;20028;-82
2023/05/03 06:41:10;;;;;;;0.10;0.10;;;;;;;9.78;57.61;103101.22;5078768;28;20036;-83
2023/05/03 06:43:36;;;;;;;0.10;0.10;;;;;;;9.85;58.03;103098.72;5088654;28;20031;-80
2023/05/03 06:46:02;;;;;;;0.10;0.10;;;;;;;9.92;57.46;103096.19;5092948;28;20028;-81
2023/05/03 06:48:28;;;;;;;0.10;0.10;;;;;;;10.02;57.44;103087.59;5087345;28;20398;-80
2023/05/03 06:50:55;;;;;;;0.10;0.10;;;;;;;10.10;57.17;103093.00;5079105;28;20067;-81
2023/05/03 06:53:21;;;;;;;0.10;0.10;;;;;;;10.17;57.27;103084.31;5079180;28;20036;-80
2023/05/03 06:55:47;;;;;;;0.10;0.10;;;;;;;10.26;57.13;103084.47;5080723;28;20095;-80
2023/05/03 06:58:13;;;;;;;0.10;0.10;;;;;;;10.33;57.03;103077.50;5079040;28;20514;-81
2023/05/03 07:00:39;;;;;;;0.10;0.10;;;;;;;10.41;57.00;103077.69;5088205;28;20110;-81
2023/05/03 07:03:06;;;;;;;0.10;0.10;;;;;;;10.50;56.86;103075.19;5079531;28;20044;-81
2023/05/03 07:05:32;;;;;;;0.10;0.10;;;;;;;10.56;56.56;103083.22;5085335;28;20052;-82
2023/05/03 07:07:58;;;;;;;0.10;0.10;;;;;;;10.63;56.42;103071.84;5100589;28;20024;-81
2023/05/03 07:10:25;;;;;;;0.00;0.00;;;;;;;10.70;56.56;103066.66;5095978;28;20124;-82
2023/05/03 07:12:51;;;;;;;0.10;0.10;;;;;;;10.76;56.39;103061.44;5081235;28;20036;-83
2023/05/03 07:15:17;;;;;;;0.10;0.10;;;;;;;10.84;56.04;103063.34;5081268;28;20033;-84
2023/05/03 07:17:43;;;;;;;0.10;0.10;;;;;;;10.90;56.13;103065.16;5088096;28;20035;-83
2023/05/03 07:20:09;;;;;;;0.00;0.00;;;;;;;11.00;55.76;103063.53;5089916;28;20055;-82
2023/05/03 07:22:35;;;;;;;0.10;0.10;;;;;;;11.10;55.49;103062.81;5083965;28;20020;-82
2023/05/03 07:25:01;;;;;;;0.10;0.10;;;;;;;11.18;55.30;103054.94;5091263;28;20499;-82
2023/05/03 07:27:27;;;;;;;0.10;0.10;;;;;;;11.27;55.05;103052.41;5083819;28;20040;-81
2023/05/03 07:29:53;;;;;;;0.08;0.08;;;;;;;11.36;55.31;103040.13;5092755;28;20035;-83
2023/05/03 07:32:20;;;;;;;0.10;0.10;;;;;;;11.43;54.94;103042.00;5084400;28;20047;-82
2023/05/03 07:34:46;;;;;;;0.10;0.10;;;;;;;11.50;54.97;103041.16;5096571;28;20435;-81
2023/05/03 07:37:13;;;;;;;0.10;0.10;;;;;;;11.58;54.61;103042.16;5091523;28;20092;-81
2023/05/03 07:39:40;;;;;;;0.10;0.10;;;;;;;11.59;54.53;103033.31;5090857;28;20073;-82
2023/05/03 07:42:07;;;;;;;0.10;0.10;;;;;;;11.69;55.02;103034.31;5089746;28;20020;-82
2023/05/03 07:44:33;;;;;;;0.10;0.10;;;;;;;11.75;54.61;103031.72;5093624;28;20020;-81
2023/05/03 07:46:59;;;;;;;0.10;0.10;;;;;;;11.90;54.64;103030.97;5094833;28;20040;-82
2023/05/03 07:49:25;;;;;;;0.10;0.10;;;;;;;11.93;54.23;103025.69;5091666;28;20437;-81
2023/05/03 07:51:51;;;;;;;0.10;0.10;;;;;;;12.02;54.05;103024.91;5098078;28;20047;-81
2023/05/03 07:54:17;;;;;;;0.00;0.00;;;;;;;12.12;53.88;103024.13;5084219;28;20040;-82
2023/05/03 07:56:43;;;;;;;0.10;0.10;;;;;;;12.20;53.56;103026.84;5088250;28;20093;-81
2023/05/03 07:59:10;;;;;;;0.05;0.05;;;;;;;12.27;54.11;103018.06;5094303;28;20092;-82
2023/05/03 08:01:36;;;;;;;0.08;0.08;;;;;;;12.39;53.70;103027.00;5087570;28;20145;-82
2023/05/03 08:04:03;;;;;;;0.05;0.05;;;;;;;12.52;53.71;103026.19;5091137;28;20067;-83
2023/05/03 08:06:30;;;;;;;0.10;0.10;;;;;;;12.69;53.09;103030.75;5082443;28;20028;-82
2023/05/03 08:08:56;;;;;;;0.10;0.10;;;;;;;12.82;53.12;103032.56;5082742;28;20077;-82
2023/05/03 08:11:22;;;;;;;0.10;0.10;;;;;;;12.88;53.09;103021.09;5078558;28;20090;-83
2023/05/03 08:13:48;;;;;;;0.10;0.10;;;;;;;13.01;53.33;103022.03;5078531;28;20095;-82
2023/05/03 08:16:15;;;;;;;0.10;0.10;;;;;;;13.13;53.10;103022.09;5081954;28;20068;-82
2023/05/03 08:18:41;;;;;;;0.55;0.55;;;;;;;13.21;52.02;103014.16;5086432;28;20020;-83
2023/05/03 08:21:08;;;;;;;0.10;0.10;;;;;;;13.31;52.14;103020.38;5081766;28;20031;-83
2023/05/03 08:23:35;;;;;;;0.10;0.10;;;;;;;13.37;52.13;103016.03;5087057;28;20024;-89
2023/05/03 08:26:03;;;;;;;0.10;0.10;;;;;;;13.45;51.83;103018.69;5080609;28;20031;-83
2023/05/03 08:28:30;;;;;;;0.10;0.10;;;;;;;13.52;51.80;103011.59;5082131;28;20016;-82
2023/05/03 08:30:56;;;;;;;0.03;0.03;;;;;;;13.53;52.11;103019.63;5080346;28;20094;-83
2023/05/03 08:33:22;;;;;;;0.00;0.00;;;;;;;13.64;51.55;103013.41;5081496;28;20024;-82
2023/05/03 08:35:48;;;;;;;0.10;0.10;;;;;;;13.71;51.15;103015.22;5083583;28;20036;-83
2023/05/03 08:38:15;;;;;;;0.10;0.10;;;;;;;13.76;51.14;103013.44;5087308;28;20046;-83
2023/05/03 08:40:42;;;;;;;0.10;0.10;;;;;;;13.82;51.05;103021.44;5082262;28;20061;-83
2023/05/03 08:43:09;;;;;;;0.00;0.00;;;;;;;13.89;51.12;103025.00;5087864;28;20028;-85
2023/05/03 08:45:35;;;;;;;0.10;0.10;;;;;;;13.95;50.61;103026.78;5084074;28;20117;-84
2023/05/03 08:48:03;;;;;;;0.10;0.10;;;;;;;14.01;50.65;103029.47;5090780;28;20028;-83
2023/05/03 08:50:30;;;;;;;0.10;0.10;;;;;;;14.07;50.21;103037.47;5091552;28;20028;-84
2023/05/03 08:52:58;;;;;;;0.40;0.40;;;;;;;14.13;49.95;103040.13;5092108;28;20096;-83
2023/05/03 08:55:24;;;;;;;0.00;0.00;;;;;;;14.18;49.79;103038.34;5090177;28;20031;-81
2023/05/03 08:57:50;;;;;;;0.10;0.10;;;;;;;14.27;49.47;103036.56;5078975;28;20080;-80
2023/05/03 09:00:18;;;;;;;0.05;0.05;;;;;;;14.30;49.46;103031.22;5083785;28;20052;-83
2023/05/03 09:02:45;;;;;;;0.10;0.10;;;;;;;14.34;49.24;103027.66;5081616;28;20095;-81
2023/05/03 09:05:32;;;;;;;0.10;0.10;;;;;;;14.51;49.31;103030.31;5089255;28;20096;-83
2023/05/03 09:10:39;;;;;;;0.10;0.10;;;;;;;14.59;48.81;103033.84;5068773;28;20743;-83
2023/05/03 09:13:07;;;;;;;0.10;0.10;;;;;;;14.65;48.81;103027.66;5054470;28;20072;-82
2023/05/03 09:15:34;;;;;;;0.10;0.10;;;;;;;14.74;48.85;103030.28;5051030;28;20030;-83
2023/05/03 09:20:51;;;;;;;0.00;0.00;;;;;;;14.98;48.67;103025.81;5074082;28;20127;-82
2023/05/03 09:26:02;;;;;;;0.10;0.10;;;;;;;15.18;48.14;103028.38;5116755;27;1191913;-83
2023/05/03 09:28:28;;;;;;;0.00;0.00;;;;;;;15.25;47.75;103034.56;5131228;28;20042;-83
2023/05/03 09:31:06;;;;;;;0.10;0.10;;;;;;;15.34;47.68;103026.53;5115713;28;20406;-83
2023/05/03 09:33:33;;;;;;;0.08;0.08;;;;;;;15.38;47.32;103030.97;5121928;28;20042;-83
2023/05/03 09:36:02;;;;;;;1.38;1.30;;;;;;;15.48;47.14;103027.34;5115594;28;20504;-83
2023/05/03 09:38:31;;;;;;;0.00;0.00;;;;;;;15.57;47.10;103025.53;5114572;28;20028;-83
2023/05/03 09:40:57;;;;;;;0.10;0.10;;;;;;;15.62;46.34;103023.69;5112806;28;20059;-82
2023/05/03 09:43:23;;;;;;;0.10;0.10;;;;;;;15.68;46.17;103021.88;5113753;28;20110;-83
2023/05/03 09:45:49;;;;;;;0.10;0.10;;;;;;;15.71;45.97;103020.97;5115238;28;20028;-83
2023/05/03 09:48:16;;;;;;;0.20;0.20;;;;;;;15.79;46.12;103024.47;5114893;28;20110;-83
2023/05/03 09:50:42;;;;;;;0.05;0.05;;;;;;;15.85;45.67;103021.78;5113699;28;20486;-82
2023/05/03 09:53:09;;;;;;;0.00;0.00;;;;;;;15.85;45.66;103029.81;5119154;28;20482;-83
2023/05/03 09:55:37;;;;;;;0.10;0.10;;;;;;;15.88;45.99;103020.00;5118932;28;20410;-83
2023/05/03 09:58:05;;;;;;;0.10;0.10;;;;;;;15.99;45.72;103020.81;5112282;28;20081;-84
2023/05/03 10:00:36;;;;;;;0.08;0.08;;;;;;;16.09;45.68;103019.81;5112281;28;20034;-83
2023/05/03 10:03:07;;;;;;;0.08;0.08;;;;;;;16.15;45.74;103025.13;5116819;28;20091;-83
2023/05/03 10:05:39;;;;;;;0.00;0.00;;;;;;;16.13;44.79;103026.03;5115681;28;20012;-84
2023/05/03 10:08:06;;;;;;;0.10;0.10;;;;;;;16.12;45.83;103019.78;5107281;28;20064;-84
2023/05/03 10:10:34;;;;;;;0.10;0.10;;;;;;;16.12;45.45;103018.91;5113749;28;20035;-82
2023/05/03 10:13:02;;;;;;;0.00;0.00;;;;;;;16.12;45.13;103009.09;5109673;28;20027;-82
2023/05/03 10:15:30;;;;;;;0.43;0.30;;;;;;;16.15;45.21;103006.41;5113764;28;20032;-82
2023/05/03 10:18:01;;;;;;;0.03;0.03;;;;;;;16.22;45.22;103006.34;5114204;28;20031;-83
2023/05/03 10:20:50;;;;;;;0.00;0.00;;;;;;;16.22;45.24;103012.56;5111667;28;20106;-83
2023/05/03 10:23:17;;;;;;;0.10;0.10;;;;;;;16.19;45.07;103001.91;5115879;28;20046;-83
2023/05/03 10:28:40;;;;;;;0.90;0.82;;;;;;;16.32;45.16;103002.66;5077855;27;1895916;-84
2023/05/03 10:34:31;;;;;;;0.00;0.00;;;;;;;16.67;44.13;102993.38;5098347;28;20044;-79
2023/05/03 10:36:59;;;;;;;0.10;0.10;;;;;;;16.65;44.25;102987.19;5104775;28;20024;-84
2023/05/03 10:39:27;;;;;;;0.10;0.10;;;;;;;16.72;43.99;102988.88;5095475;28;20013;-83
2023/05/03 10:42:01;;;;;;;0.05;0.05;;;;;;;16.86;43.50;102985.16;5094443;28;20029;-83
2023/05/03 10:44:49;;;;;;;0.75;0.45;;;;;;;16.88;43.38;102983.34;5093549;28;20040;-82
2023/05/03 10:47:17;;;;;;;0.10;0.10;;;;;;;16.97;43.16;102986.84;5095647;28;20033;-83
2023/05/03 10:49:44;;;;;;;0.00;0.00;;;;;;;17.04;42.56;102984.06;5094419;28;20119;-83
2023/05/03 10:55:18;;;;;;;0.00;0.00;;;;;;;17.20;42.74;102979.41;5116674;27;1155484;-83
2023/05/03 10:57:45;;;;;;;0.80;0.80;;;;;;;17.27;42.38;102973.03;5130252;28;20036;-83
2023/05/03 11:05:50;;;;;;;0.10;0.10;;;;;;;17.69;42.27;102967.06;5147053;27;20147;-85
2023/05/03 11:08:18;;;;;;;0.03;0.03;;;;;;;17.75;42.17;102965.16;5111711;28;20027;-82
2023/05/03 11:10:45;;;;;;;0.10;0.10;;;;;;;17.84;41.90;102969.47;5119718;28;20031;-81
2023/05/03 11:13:12;;;;;;;0.10;0.10;;;;;;;17.87;41.73;102956.03;5120895;28;20036;-82
2023/05/03 11:15:39;;;;;;;0.08;0.08;;;;;;;17.97;41.66;102951.44;5119964;28;20020;-84
2023/05/03 11:18:07;;;;;;;0.20;0.20;;;;;;;18.08;41.50;102952.13;5118493;28;20024;-82
2023/05/03 11:20:34;;;;;;;0.10;0.10;;;;;;;18.15;41.44;102950.19;5119133;28;20031;-84
2023/05/03 11:23:01;;;;;;;0.10;0.10;;;;;;;18.21;41.21;102950.09;5118571;28;20457;-84
2023/05/03 11:25:28;;;;;;;0.00;0.00;;;;;;;18.22;40.59;102948.31;5118414;28;20015;-82
2023/05/03 11:27:54;;;;;;;0.10;0.10;;;;;;;18.24;40.35;102933.94;5117849;28;20092;-83
2023/05/03 11:30:20;;;;;;;0.10;0.10;;;;;;;18.28;40.65;102929.41;5122066;28;20306;-84
2023/05/03 11:32:46;;;;;;;0.10;0.10;;;;;;;18.39;40.10;102922.03;5111702;28;20028;-83
2023/05/03 11:35:14;;;;;;;0.63;0.63;;;;;;;18.51;40.23;102926.25;5113029;28;20104;-82
2023/05/03 11:37:42;;;;;;;0.00;0.00;;;;;;;18.65;39.58;102927.78;5108610;28;20032;-80
2023/05/03 11:40:17;;;;;;;0.10;0.10;;;;;;;18.85;38.08;102916.63;5110736;28;20030;-81
2023/05/03 11:45:39;;;;;;;0.10;0.10;;;;;;;19.08;39.07;102922.38;5106909;27;1181609;-83
2023/05/03 11:48:06;;;;;;;0.10;0.10;;;;;;;19.08;37.03;102916.16;5113999;27;20054;-83
2023/05/03 11:50:54;;;;;;;0.10;0.10;;;;;;;19.28;38.24;102914.78;5125709;28;20024;-83
2023/05/03 11:53:23;;;;;;;0.10;0.10;;;;;;;19.27;38.36;102913.03;5102505;27;20024;-83
2023/05/03 11:55:52;;;;;;;0.00;0.00;;;;;;;19.33;37.94;102905.69;5095394;28;20032;-83
2023/05/03 11:58:23;;;;;;;0.20;0.20;;;;;;;19.37;37.67;102899.31;5097747;28;20127;-82
2023/05/03 12:00:51;;;;;;;0.10;0.10;;;;;;;19.43;37.11;102898.28;5096639;28;20024;-82
2023/05/03 12:03:23;;;;;;;1.67;0.90;;;;;;;19.53;37.50;102894.44;5100070;28;20472;-82